createdAt,value
2018-07-04T00:01:41.195Z,8.70
2018-07-04T00:04:20.688Z,7.83
2018-07-04T00:07:00.152Z,6.43
2018-07-04T00:09:39.937Z,11.70
2018-07-04T00:12:19.525Z,7.20
2018-07-04T00:14:59.054Z,8.60
2018-07-04T00:17:39.085Z,3.83
2018-07-04T00:20:18.625Z,9.17
2018-07-04T00:22:58.329Z,6.00
2018-07-04T00:25:37.874Z,7.53
2018-07-04T00:28:17.561Z,9.80
2018-07-04T00:30:57.303Z,5.83
2018-07-04T00:33:36.909Z,9.17
2018-07-04T00:36:16.727Z,6.47
2018-07-04T00:38:56.084Z,8.30
2018-07-04T00:41:35.700Z,6.50
2018-07-04T00:44:15.311Z,6.50
2018-07-04T00:46:54.960Z,7.70
2018-07-04T00:49:34.670Z,6.83
2018-07-04T00:52:14.081Z,10.40
2018-07-04T00:54:53.777Z,7.90
2018-07-04T00:57:33.380Z,5.60
2018-07-04T01:00:13.080Z,10.87
2018-07-04T01:02:52.688Z,9.27
2018-07-04T01:05:32.341Z,9.07
2018-07-04T01:08:11.937Z,4.73
2018-07-04T01:10:51.529Z,6.63
2018-07-04T01:13:31.208Z,8.47
2018-07-04T01:16:10.900Z,5.27
2018-07-04T01:18:50.537Z,6.63
2018-07-04T01:21:30.340Z,4.93
2018-07-04T01:24:10.037Z,7.07
2018-07-04T01:26:49.525Z,6.93
2018-07-04T01:29:29.016Z,5.07
2018-07-04T01:32:08.601Z,4.57
2018-07-04T01:34:48.160Z,8.83
2018-07-04T01:37:27.924Z,8.23
2018-07-04T01:40:07.569Z,8.07
2018-07-04T01:42:47.204Z,4.30
2018-07-04T01:45:26.802Z,6.93
2018-07-04T01:48:06.347Z,3.93
2018-07-04T01:50:46.042Z,5.00
2018-07-04T01:54:54.878Z,5.17
2018-07-04T01:57:34.388Z,7.00
2018-07-04T02:00:14.167Z,5.40
2018-07-04T02:02:53.833Z,10.20
2018-07-04T02:05:33.538Z,9.03
2018-07-04T02:08:13.012Z,7.80
2018-07-04T02:10:52.741Z,15.87
2018-07-04T02:13:32.395Z,7.67
2018-07-04T02:16:05.831Z,6.57
2018-07-04T02:18:39.447Z,4.93
2018-07-04T02:21:19.105Z,4.40
2018-07-04T02:23:58.740Z,5.83
2018-07-04T02:26:38.187Z,5.13
2018-07-04T02:29:17.971Z,9.73
2018-07-04T02:31:57.658Z,8.33
2018-07-04T02:34:37.460Z,9.80
2018-07-04T02:37:17.081Z,10.90
2018-07-04T02:39:56.812Z,4.13
2018-07-04T02:42:30.443Z,10.00
2018-07-04T02:45:04.063Z,6.80
2018-07-04T02:47:43.684Z,9.83
2018-07-04T02:50:23.473Z,9.30
2018-07-04T02:53:03.016Z,6.90
2018-07-04T02:55:42.569Z,6.07
2018-07-04T02:58:22.312Z,6.57
2018-07-04T03:00:56.547Z,11.20
2018-07-04T03:03:36.082Z,13.20
2018-07-04T03:06:15.913Z,8.17
2018-07-04T03:08:55.584Z,6.47
2018-07-04T03:11:29.155Z,7.60
2018-07-04T03:14:08.842Z,7.43
2018-07-04T03:16:48.333Z,9.80
2018-07-04T03:19:21.902Z,10.90
2018-07-04T03:22:01.628Z,8.00
2018-07-04T03:24:41.305Z,9.80
2018-07-04T03:27:20.877Z,7.17
2018-07-04T03:30:00.536Z,8.13
2018-07-04T03:32:40.110Z,7.00
2018-07-04T03:35:19.731Z,11.00
2018-07-04T03:37:59.519Z,7.03
2018-07-04T03:40:39.161Z,9.67
2018-07-04T03:43:18.869Z,10.13
2018-07-04T03:45:58.519Z,7.37
2018-07-04T03:48:38.189Z,12.10
2018-07-04T03:51:17.737Z,13.43
2018-07-04T03:53:57.284Z,8.50
2018-07-04T03:56:36.989Z,8.20
2018-07-04T03:59:16.727Z,16.57
2018-07-04T04:01:56.236Z,11.63
2018-07-04T04:04:35.917Z,7.63
2018-07-04T04:07:15.490Z,10.43
2018-07-04T04:09:54.952Z,12.17
2018-07-04T04:12:34.652Z,13.17
2018-07-04T04:15:14.210Z,13.60
2018-07-04T04:17:53.781Z,6.93
2018-07-04T04:20:33.338Z,8.77
2018-07-04T04:23:12.863Z,11.10
2018-07-04T04:25:52.483Z,9.77
2018-07-04T04:28:32.249Z,13.00
2018-07-04T04:31:12.224Z,17.43
2018-07-04T04:33:51.829Z,25.93
2018-07-04T04:36:31.541Z,11.00
2018-07-04T04:39:11.087Z,11.20
2018-07-04T04:41:50.920Z,13.40
2018-07-04T04:44:24.584Z,16.00
2018-07-04T04:47:04.184Z,10.00
2018-07-04T04:49:43.848Z,11.90
2018-07-04T04:52:23.595Z,13.33
2018-07-04T04:55:03.305Z,9.70
2018-07-04T04:57:42.887Z,11.13
2018-07-04T06:22:31.972Z,16.77
2018-07-04T06:25:05.553Z,11.00
2018-07-04T06:27:45.648Z,9.80
2018-07-04T06:30:25.196Z,11.13
2018-07-04T06:33:04.704Z,6.20
2018-07-04T06:35:44.404Z,9.93
2018-07-04T06:38:11.568Z,11.87
2018-07-04T06:40:38.759Z,10.50
2018-07-04T06:43:05.944Z,13.63
2018-07-04T06:45:33.112Z,14.23
2018-07-04T06:48:00.309Z,9.30
2018-07-04T06:50:27.523Z,12.60
2018-07-04T06:52:54.701Z,11.63
2018-07-04T06:55:21.880Z,15.50
2018-07-04T06:57:49.072Z,9.57
2018-07-04T07:00:16.276Z,16.27
2018-07-04T07:02:43.468Z,8.73
2018-07-04T07:05:23.278Z,15.57
2018-07-04T07:08:02.956Z,9.30
2018-07-04T07:10:42.780Z,8.37
2018-07-04T07:13:22.552Z,8.87
2018-07-04T07:16:02.070Z,16.43
2018-07-04T07:18:41.792Z,6.47
2018-07-04T07:21:21.593Z,8.80
2018-07-04T07:24:01.281Z,11.20
2018-07-04T07:26:40.987Z,4.07
2018-07-04T07:29:20.688Z,9.00
2018-07-04T07:32:00.339Z,6.60
2018-07-04T07:34:40.107Z,5.23
2018-07-04T07:37:19.762Z,9.20
2018-07-04T07:39:59.472Z,3.83
2018-07-04T07:42:39.200Z,6.53
2018-07-04T07:45:18.932Z,8.47
2018-07-04T07:47:58.579Z,8.97
2018-07-04T07:50:38.212Z,6.80
2018-07-04T07:53:17.888Z,7.50
2018-07-04T07:55:51.317Z,6.47
2018-07-04T07:58:31.131Z,7.83
2018-07-04T08:01:10.798Z,5.37
2018-07-04T08:03:50.559Z,6.83
2018-07-04T08:06:30.196Z,7.67
2018-07-04T08:09:09.612Z,6.63
2018-07-04T08:11:49.226Z,8.70
2018-07-04T08:14:28.888Z,12.37
2018-07-04T08:17:02.433Z,3.10
2018-07-04T08:19:42.269Z,7.33
2018-07-04T08:22:21.907Z,12.07
2018-07-04T08:25:01.471Z,12.53
2018-07-04T08:27:41.024Z,10.70
2018-07-04T08:30:20.591Z,7.27
2018-07-04T08:33:00.289Z,6.40
2018-07-04T08:35:39.963Z,4.17
2018-07-04T08:38:19.864Z,8.47
2018-07-04T08:40:59.499Z,8.50
2018-07-04T08:43:39.054Z,8.70
2018-07-04T08:46:18.716Z,8.67
2018-07-04T08:48:58.352Z,7.03
2018-07-04T08:51:31.827Z,4.60
2018-07-04T08:54:11.389Z,5.47
2018-07-04T08:56:51.057Z,6.50
2018-07-04T08:59:30.781Z,8.33
2018-07-04T09:02:10.400Z,10.10
2018-07-04T09:04:50.148Z,5.20
2018-07-04T09:07:29.874Z,5.63
2018-07-04T09:10:09.316Z,7.23
2018-07-04T09:12:48.876Z,4.90
2018-07-04T09:15:28.475Z,4.03
2018-07-04T09:18:08.125Z,7.90
2018-07-04T09:20:47.710Z,7.70
2018-07-04T09:23:27.471Z,6.60
2018-07-04T09:26:07.099Z,4.70
2018-07-04T09:28:46.704Z,3.60
2018-07-04T09:31:20.084Z,7.63
2018-07-04T09:33:53.481Z,13.33
2018-07-04T09:36:33.089Z,5.07
2018-07-04T09:39:12.633Z,9.40
2018-07-04T09:41:52.241Z,7.40
2018-07-04T09:44:31.896Z,4.30
2018-07-04T09:47:11.375Z,5.40
2018-07-04T09:49:51.064Z,3.03
2018-07-04T09:52:30.619Z,4.60
2018-07-04T09:55:10.158Z,3.30
2018-07-04T09:57:49.801Z,7.60
2018-07-04T10:00:30.022Z,2.27
2018-07-04T10:03:10.656Z,8.97
2018-07-04T10:05:50.427Z,7.57
2018-07-04T10:08:30.057Z,6.20
2018-07-04T10:11:10.232Z,4.77
2018-07-04T10:13:49.777Z,7.73
2018-07-04T10:16:29.423Z,4.60
2018-07-04T10:19:09.009Z,4.23
2018-07-04T10:21:48.707Z,6.47
2018-07-04T10:24:28.335Z,6.27
2018-07-04T10:27:08.021Z,4.63
2018-07-04T10:29:47.816Z,4.90
2018-07-04T10:32:27.443Z,4.53
2018-07-04T10:35:06.924Z,6.30
2018-07-04T10:37:46.364Z,7.13
2018-07-04T10:40:25.851Z,7.77
2018-07-04T10:43:05.410Z,8.30
2018-07-04T10:45:44.916Z,4.17
2018-07-04T10:48:24.633Z,9.40
2018-07-04T10:51:04.214Z,3.40
2018-07-04T10:53:43.935Z,6.50
2018-07-04T10:56:23.472Z,5.73
2018-07-04T10:58:56.956Z,4.33
2018-07-04T11:01:36.558Z,4.80
2018-07-04T11:04:16.153Z,13.93
2018-07-04T11:06:55.784Z,6.60
2018-07-04T11:09:35.316Z,2.40
2018-07-04T11:12:14.633Z,7.10
2018-07-04T11:14:54.107Z,13.37
2018-07-04T11:17:33.601Z,4.70
2018-07-04T11:20:13.218Z,4.33
2018-07-04T11:22:52.732Z,4.97
2018-07-04T11:25:32.285Z,8.73
2018-07-04T11:28:05.896Z,3.20
2018-07-04T11:30:45.325Z,2.53
2018-07-04T11:33:18.839Z,5.27
2018-07-04T11:35:58.400Z,6.47
2018-07-04T11:38:38.056Z,5.47
2018-07-04T11:41:17.663Z,3.77
2018-07-04T11:43:57.320Z,4.63
2018-07-04T11:46:24.485Z,4.63
2018-07-04T11:48:51.652Z,4.63
2018-07-04T11:51:18.836Z,5.00
2018-07-04T11:53:46.013Z,3.47
2018-07-04T11:56:13.185Z,3.30
2018-07-04T11:58:40.356Z,5.47
2018-07-04T12:01:07.520Z,3.27
2018-07-04T12:03:46.901Z,5.93
2018-07-04T12:06:26.273Z,3.37
2018-07-04T12:08:53.443Z,3.90
2018-07-04T12:11:20.615Z,3.33
2018-07-04T12:13:47.779Z,2.87
2018-07-04T12:16:14.944Z,6.10
2018-07-04T12:18:42.120Z,6.23
2018-07-04T12:21:09.295Z,3.97
2018-07-04T12:23:36.458Z,2.40
2018-07-04T12:26:03.646Z,5.93
2018-07-04T12:28:30.808Z,3.03
2018-07-04T12:30:57.998Z,3.00
2018-07-04T12:33:25.171Z,3.07
2018-07-04T12:35:52.344Z,5.50
2018-07-04T12:38:19.513Z,5.73
2018-07-04T12:40:46.696Z,5.57
2018-07-04T12:43:13.873Z,4.20
2018-07-04T12:45:41.033Z,6.77
2018-07-04T12:48:08.231Z,5.27
2018-07-04T12:50:35.415Z,4.23
2018-07-04T12:53:02.578Z,3.87
2018-07-04T12:55:43.738Z,2.20
2018-07-04T12:58:23.396Z,1.80
2018-07-04T13:01:02.969Z,2.00
2018-07-04T13:03:42.652Z,3.43
2018-07-04T13:06:22.382Z,5.67
2018-07-04T13:09:01.911Z,2.00
2018-07-04T13:11:41.642Z,1.43
2018-07-04T13:14:15.062Z,2.13
2018-07-04T13:16:55.043Z,3.50
2018-07-04T13:19:34.927Z,2.40
2018-07-04T13:22:14.424Z,1.90
2018-07-04T13:24:54.105Z,1.87
2018-07-04T13:27:33.732Z,3.43
2018-07-04T13:30:13.295Z,2.27
2018-07-04T13:32:52.848Z,2.97
2018-07-04T13:35:32.478Z,2.00
2018-07-04T13:38:12.164Z,2.77
2018-07-04T13:40:51.760Z,4.13
2018-07-04T13:43:31.310Z,2.23
2018-07-04T13:46:10.994Z,3.43
2018-07-04T13:48:50.569Z,5.43
2018-07-04T13:51:30.116Z,4.50
2018-07-04T13:54:09.693Z,1.97
2018-07-04T13:56:49.106Z,2.73
2018-07-04T13:59:28.459Z,3.00
2018-07-04T14:02:08.116Z,2.50
2018-07-04T14:04:47.756Z,3.27
2018-07-04T14:07:27.456Z,2.67
2018-07-04T14:10:07.175Z,3.80
2018-07-04T14:12:46.785Z,3.80
2018-07-04T14:15:26.564Z,2.97
2018-07-04T14:18:05.940Z,3.43
2018-07-04T14:20:45.476Z,2.10
2018-07-04T14:23:25.032Z,1.77
2018-07-04T14:26:04.508Z,2.37
2018-07-04T14:28:44.108Z,2.60
2018-07-04T14:31:23.623Z,2.67
2018-07-04T14:34:03.225Z,4.53
2018-07-04T14:36:42.768Z,1.90
2018-07-04T14:39:22.432Z,2.40
2018-07-04T14:42:02.005Z,3.60
2018-07-04T14:44:41.567Z,2.70
2018-07-04T14:47:21.284Z,2.03
2018-07-04T14:50:00.776Z,5.50
2018-07-04T14:52:40.363Z,5.83
2018-07-04T14:55:19.865Z,2.77
2018-07-04T14:57:59.420Z,5.70
2018-07-04T15:00:39.058Z,2.70
2018-07-04T15:03:18.558Z,2.40
2018-07-04T15:05:58.128Z,2.63
2018-07-04T15:08:37.800Z,2.13
2018-07-04T15:11:17.400Z,1.93
2018-07-04T15:13:56.952Z,2.90
2018-07-04T15:16:36.384Z,2.50
2018-07-04T15:19:15.940Z,2.50
2018-07-04T15:21:55.464Z,4.53
2018-07-04T15:24:34.908Z,1.67
2018-07-04T15:27:14.430Z,3.30
2018-07-04T15:29:53.969Z,1.40
2018-07-04T15:32:33.562Z,2.13
2018-07-04T15:35:13.061Z,2.20
2018-07-04T15:37:52.619Z,1.70
2018-07-04T15:40:32.207Z,2.70
2018-07-04T15:43:11.895Z,7.43
2018-07-04T15:45:51.472Z,2.63
2018-07-04T15:48:31.135Z,2.90
2018-07-04T15:51:10.843Z,2.00
2018-07-04T15:53:50.464Z,2.53
2018-07-04T15:56:30.085Z,4.50
2018-07-04T15:59:03.601Z,2.20
2018-07-04T16:01:43.116Z,3.50
2018-07-04T16:04:22.614Z,2.50
2018-07-04T16:07:32.967Z,3.57
2018-07-04T16:10:12.779Z,5.80
2018-07-04T16:12:52.435Z,2.00
2018-07-04T16:15:32.117Z,5.03
2018-07-04T16:18:11.653Z,4.17
2018-07-04T16:20:51.014Z,2.40
2018-07-04T16:23:30.395Z,4.83
2018-07-04T16:26:09.965Z,5.73
2018-07-04T16:28:49.564Z,2.30
2018-07-04T16:31:29.109Z,2.53
2018-07-04T16:34:08.691Z,6.53
2018-07-04T16:36:48.268Z,4.57
2018-07-04T16:39:27.809Z,2.30
2018-07-04T16:42:07.362Z,3.30
2018-07-04T16:44:46.952Z,2.27
2018-07-04T16:47:26.792Z,3.27
2018-07-04T16:50:06.381Z,1.80
2018-07-04T16:52:46.434Z,5.70
2018-07-04T16:55:26.322Z,6.03
2018-07-04T16:58:05.896Z,4.20
2018-07-04T17:00:45.462Z,2.77
2018-07-04T17:03:24.961Z,4.33
2018-07-04T17:06:04.393Z,2.20
2018-07-04T17:08:44.025Z,2.57
2018-07-04T17:11:23.458Z,3.43
2018-07-04T17:14:03.055Z,1.60
2018-07-04T17:16:42.488Z,2.60
2018-07-04T17:19:22.172Z,5.33
2018-07-04T17:22:01.852Z,5.53
2018-07-04T17:24:41.563Z,2.03
2018-07-04T17:27:21.083Z,3.10
2018-07-04T17:30:00.747Z,1.70
2018-07-04T17:32:40.296Z,5.93
2018-07-04T17:35:21.328Z,2.20
2018-07-04T17:38:00.846Z,3.83
2018-07-04T17:40:41.223Z,3.00
2018-07-04T17:43:20.876Z,1.60
2018-07-04T17:46:00.783Z,3.53
2018-07-04T17:48:34.564Z,3.40
2018-07-04T17:51:14.325Z,2.00
2018-07-04T17:53:48.793Z,4.90
2018-07-04T17:56:22.364Z,1.50
2018-07-04T17:59:01.962Z,5.30
2018-07-04T18:01:41.622Z,2.87
2018-07-04T18:04:21.267Z,2.47
2018-07-04T18:07:00.777Z,1.80
2018-07-04T18:09:40.259Z,7.17
2018-07-04T18:12:19.743Z,4.70
2018-07-04T18:14:59.462Z,3.70
2018-07-04T18:17:39.033Z,4.40
2018-07-04T18:20:18.371Z,1.60
2018-07-04T18:22:58.058Z,1.87
2018-07-04T18:25:37.680Z,4.37
2018-07-04T18:28:17.416Z,2.70
2018-07-04T18:30:57.020Z,5.33
2018-07-04T18:33:36.652Z,4.07
2018-07-04T18:36:16.413Z,6.50
2018-07-04T18:38:55.987Z,2.60
2018-07-04T18:41:35.518Z,3.33
2018-07-04T18:44:15.198Z,2.97
2018-07-04T18:46:55.684Z,2.60
2018-07-04T18:49:35.181Z,1.60
2018-07-04T18:52:14.729Z,3.57
2018-07-04T18:54:54.097Z,5.07
2018-07-04T18:57:33.540Z,2.00
2018-07-04T19:00:13.416Z,6.63
2018-07-04T19:02:54.142Z,2.80
2018-07-04T19:05:33.885Z,3.00
2018-07-04T19:08:13.514Z,4.70
2018-07-04T19:10:53.076Z,3.10
2018-07-04T19:13:32.525Z,4.00
2018-07-04T19:16:12.092Z,2.20
2018-07-04T19:18:51.779Z,4.53
2018-07-04T19:21:31.305Z,4.13
2018-07-04T19:24:10.785Z,5.53
2018-07-04T19:26:50.434Z,5.20
2018-07-04T19:29:29.952Z,3.27
2018-07-04T19:32:09.573Z,7.33
2018-07-04T19:34:49.053Z,4.43
2018-07-04T19:37:28.620Z,5.90
2018-07-04T19:40:08.165Z,6.20
2018-07-04T19:42:48.008Z,2.60
2018-07-04T19:45:21.454Z,3.07
2018-07-04T19:48:01.045Z,2.40
2018-07-04T19:50:40.512Z,2.80
2018-07-04T19:53:20.524Z,4.53
2018-07-04T19:55:54.079Z,3.10
2018-07-04T19:58:33.684Z,3.87
2018-07-04T20:01:13.653Z,4.80
2018-07-04T20:03:53.179Z,2.43
2018-07-04T20:06:32.805Z,4.37
2018-07-04T20:09:12.686Z,5.13
2018-07-04T20:11:52.340Z,4.17
2018-07-04T20:14:31.957Z,3.10
2018-07-04T20:17:11.802Z,4.10
2018-07-04T20:19:51.263Z,2.90
2018-07-04T20:22:30.937Z,3.87
2018-07-04T20:25:10.925Z,3.20
2018-07-04T20:27:50.680Z,5.67
2018-07-04T20:30:30.368Z,6.00
2018-07-04T20:33:10.040Z,4.60
2018-07-04T20:35:51.811Z,2.77
2018-07-04T20:38:25.413Z,3.80
2018-07-04T20:41:05.208Z,4.53
2018-07-04T20:43:44.617Z,2.53
2018-07-04T20:46:24.149Z,3.53
2018-07-04T20:49:03.857Z,4.30
2018-07-04T20:51:43.428Z,6.57
2018-07-04T20:54:23.045Z,3.03
2018-07-04T20:57:02.627Z,4.13
2018-07-04T20:59:42.196Z,3.97
2018-07-04T21:02:21.842Z,3.50
2018-07-04T21:05:01.477Z,5.87
2018-07-04T21:07:41.029Z,2.53
2018-07-04T21:10:20.834Z,4.27
2018-07-04T21:13:00.451Z,4.10
2018-07-04T21:15:40.155Z,3.90
2018-07-04T21:18:19.791Z,2.70
2018-07-04T21:20:59.276Z,4.20
2018-07-04T21:23:38.829Z,2.40
2018-07-04T21:26:18.528Z,3.47
2018-07-04T21:28:58.089Z,4.60
2018-07-04T21:31:37.601Z,2.63
2018-07-04T22:20:21.116Z,5.50
2018-07-04T22:23:01.381Z,2.70
2018-07-04T22:25:40.789Z,4.00
2018-07-04T22:28:20.380Z,4.10
2018-07-04T22:31:00.014Z,2.90
2018-07-04T22:33:39.805Z,4.93
2018-07-04T22:36:19.560Z,5.00
2018-07-04T22:38:59.172Z,3.47
2018-07-04T22:41:38.741Z,3.00
2018-07-04T22:44:18.536Z,2.47
2018-07-04T22:46:58.236Z,3.87
2018-07-04T22:49:37.984Z,5.27
2018-07-04T22:52:17.675Z,3.83
2018-07-04T22:54:57.236Z,3.83
2018-07-04T22:57:36.757Z,6.07
2018-07-04T23:00:16.339Z,7.23
2018-07-04T23:02:56.056Z,3.60
2018-07-04T23:05:35.541Z,4.53
2018-07-04T23:08:15.175Z,2.70
2018-07-04T23:10:54.620Z,5.53
2018-07-04T23:13:34.089Z,5.27
2018-07-04T23:16:13.557Z,4.17
2018-07-04T23:18:53.232Z,3.10
2018-07-04T23:21:32.900Z,5.30
2018-07-04T23:24:13.054Z,2.77
2018-07-04T23:26:52.683Z,3.03
2018-07-04T23:29:32.340Z,4.60
2018-07-04T23:32:11.885Z,5.70
2018-07-04T23:34:51.552Z,2.43
2018-07-04T23:37:31.151Z,2.33
2018-07-04T23:40:10.724Z,2.60
2018-07-04T23:42:50.313Z,4.87
2018-07-04T23:45:29.901Z,3.30
2018-07-04T23:48:09.445Z,3.37
2018-07-04T23:50:49.184Z,4.63
2018-07-04T23:53:28.702Z,3.67
2018-07-04T23:56:08.190Z,3.07
2018-07-04T23:58:47.845Z,3.10
